createdAt,value
2018-04-01T00:01:35.564Z,7.60
2018-04-01T00:04:05.942Z,7.60
2018-04-01T00:06:33.972Z,7.60
2018-04-01T00:09:01.876Z,7.60
2018-04-01T00:11:29.187Z,7.50
2018-04-01T00:13:56.696Z,7.40
2018-04-01T00:16:24.637Z,7.40
2018-04-01T00:18:54.244Z,7.40
2018-04-01T00:21:21.404Z,7.30
2018-04-01T00:23:48.542Z,7.20
2018-04-01T00:26:15.953Z,7.20
2018-04-01T00:28:43.113Z,7.10
2018-04-01T00:31:10.275Z,7.00
2018-04-01T00:33:38.282Z,6.90
2018-04-01T00:36:05.516Z,6.90
2018-04-01T00:38:33.458Z,6.90
2018-04-01T00:41:00.947Z,6.90
2018-04-01T00:43:28.229Z,7.00
2018-04-01T00:45:56.376Z,6.90
2018-04-01T00:48:25.341Z,7.00
2018-04-01T00:50:52.550Z,7.10
2018-04-01T00:53:19.740Z,7.10
2018-04-01T00:55:46.899Z,7.10
2018-04-01T00:58:14.086Z,7.00
2018-04-01T01:00:41.261Z,7.10
2018-04-01T01:03:08.617Z,7.10
2018-04-01T01:05:35.770Z,7.20
2018-04-01T01:08:03.027Z,7.20
2018-04-01T01:10:30.473Z,7.10
2018-04-01T01:12:57.709Z,7.20
2018-04-01T01:15:25.963Z,7.20
2018-04-01T01:17:53.158Z,7.20
2018-04-01T01:20:20.306Z,7.10
2018-04-01T01:22:47.536Z,7.10
2018-04-01T01:25:14.726Z,7.00
2018-04-01T01:27:41.913Z,7.00
2018-04-01T01:30:09.142Z,6.90
2018-04-01T01:32:36.296Z,6.90
2018-04-01T01:35:03.483Z,6.80
2018-04-01T01:37:31.398Z,6.70
2018-04-01T01:39:58.574Z,6.70
2018-04-01T01:42:25.649Z,6.70
2018-04-01T01:44:53.520Z,6.70
2018-04-01T01:47:20.924Z,6.70
2018-04-01T01:49:48.906Z,6.60
2018-04-01T01:52:16.004Z,6.60
2018-04-01T01:54:43.187Z,6.60
2018-04-01T01:57:10.332Z,6.60
2018-04-01T01:59:38.023Z,6.60
2018-04-01T02:02:05.883Z,6.60
2018-04-01T02:04:33.194Z,6.40
2018-04-01T02:07:01.511Z,6.40
2018-04-01T02:09:29.091Z,6.40
2018-04-01T02:11:56.565Z,6.40
2018-04-01T02:14:24.324Z,6.50
2018-04-01T02:16:52.616Z,6.30
2018-04-01T02:19:19.812Z,6.30
2018-04-01T02:21:47.322Z,6.30
2018-04-01T02:24:16.533Z,6.40
2018-04-01T02:26:44.659Z,6.40
2018-04-01T02:29:11.889Z,6.40
2018-04-01T02:31:39.172Z,6.40
2018-04-01T02:34:06.364Z,6.50
2018-04-01T02:36:33.667Z,6.50
2018-04-01T02:39:00.797Z,6.70
2018-04-01T02:41:28.146Z,6.70
2018-04-01T02:43:55.298Z,6.70
2018-04-01T02:46:22.556Z,6.60
2018-04-01T02:48:50.519Z,6.70
2018-04-01T02:51:17.709Z,6.70
2018-04-01T02:53:44.858Z,6.60
2018-04-01T02:56:13.236Z,6.70
2018-04-01T02:58:41.139Z,6.70
2018-04-01T03:01:08.292Z,6.70
2018-04-01T03:03:35.408Z,6.60
2018-04-01T03:06:03.396Z,6.70
2018-04-01T03:08:30.555Z,6.70
2018-04-01T03:10:58.596Z,6.90
2018-04-01T03:13:26.561Z,6.70
2018-04-01T03:15:54.606Z,6.80
2018-04-01T03:18:21.777Z,6.80
2018-04-01T03:20:49.744Z,6.70
2018-04-01T03:23:16.960Z,6.70
2018-04-01T03:25:44.272Z,6.60
2018-04-01T03:28:11.503Z,6.60
2018-04-01T03:30:39.360Z,6.50
2018-04-01T03:33:07.235Z,6.50
2018-04-01T03:35:35.141Z,6.70
2018-04-01T03:38:02.354Z,6.70
2018-04-01T03:40:30.328Z,6.70
2018-04-01T03:42:57.533Z,6.70
2018-04-01T03:45:25.745Z,6.70
2018-04-01T03:47:53.591Z,6.60
2018-04-01T03:50:20.795Z,6.60
2018-04-01T03:52:48.120Z,6.60
2018-04-01T03:55:15.969Z,6.60
2018-04-01T03:57:43.111Z,6.60
2018-04-01T04:00:10.289Z,6.80
2018-04-01T04:02:37.466Z,6.90
2018-04-01T04:05:04.998Z,6.90
2018-04-01T04:07:32.803Z,6.90
2018-04-01T04:10:00.294Z,6.90
2018-04-01T04:12:29.043Z,6.80
2018-04-01T04:14:56.306Z,6.90
2018-04-01T04:17:23.416Z,7.00
2018-04-01T04:19:50.832Z,7.00
2018-04-01T04:22:17.967Z,7.10
2018-04-01T04:24:45.308Z,7.10
2018-04-01T04:27:12.489Z,7.20
2018-04-01T04:29:48.817Z,7.20
2018-04-01T04:32:16.022Z,7.30
2018-04-01T04:34:43.946Z,7.20
2018-04-01T04:37:11.115Z,7.20
2018-04-01T04:39:38.196Z,7.30
2018-04-01T04:42:05.360Z,7.20
2018-04-01T04:44:32.523Z,7.30
2018-04-01T04:46:59.709Z,7.30
2018-04-01T04:49:27.090Z,7.40
2018-04-01T04:51:54.477Z,7.40
2018-04-01T04:54:21.664Z,7.40
2018-04-01T04:56:48.920Z,7.30
2018-04-01T04:59:16.044Z,7.40
2018-04-01T05:01:43.334Z,7.40
2018-04-01T05:04:10.480Z,7.50
2018-04-01T05:06:37.774Z,7.50
2018-04-01T05:09:05.636Z,7.50
2018-04-01T05:11:33.108Z,7.50
2018-04-01T05:14:00.451Z,7.40
2018-04-01T05:16:27.642Z,7.40
2018-04-01T05:18:54.789Z,7.40
2018-04-01T05:21:23.321Z,7.40
2018-04-01T05:23:50.515Z,7.20
2018-04-01T05:26:17.675Z,7.20
2018-04-01T05:28:45.799Z,7.20
2018-04-01T05:31:14.420Z,7.10
2018-04-01T05:33:44.183Z,7.00
2018-04-01T05:36:11.385Z,7.00
2018-04-01T05:38:38.810Z,7.00
2018-04-01T05:41:10.574Z,7.10
2018-04-01T05:43:37.818Z,7.10
2018-04-01T05:46:04.964Z,7.10
2018-04-01T05:48:32.435Z,7.10
2018-04-01T05:50:59.622Z,7.10
2018-04-01T05:53:26.829Z,7.20
2018-04-01T05:55:54.186Z,7.20
2018-04-01T05:58:21.369Z,7.20
2018-04-01T06:00:48.616Z,7.20
2018-04-01T06:03:15.760Z,7.20
2018-04-01T06:05:43.247Z,7.20
2018-04-01T06:08:10.388Z,7.20
2018-04-01T06:10:37.585Z,7.30
2018-04-01T06:13:04.750Z,7.30
2018-04-01T06:15:31.936Z,7.40
2018-04-01T06:17:59.103Z,7.50
2018-04-01T06:20:27.491Z,7.60
2018-04-01T06:22:54.771Z,7.60
2018-04-01T06:25:21.969Z,7.60
2018-04-01T06:27:49.122Z,7.60
2018-04-01T06:30:16.333Z,7.70
2018-04-01T06:32:43.662Z,7.80
2018-04-01T06:35:10.872Z,7.80
2018-04-01T06:37:38.177Z,7.90
2018-04-01T06:40:07.188Z,7.90
2018-04-01T06:42:34.384Z,7.90
2018-04-01T06:45:01.522Z,7.90
2018-04-01T06:47:28.880Z,7.80
2018-04-01T06:49:56.086Z,7.80
2018-04-01T06:52:23.509Z,7.70
2018-04-01T06:54:51.967Z,7.70
2018-04-01T06:57:20.409Z,7.80
2018-04-01T06:59:47.888Z,7.80
2018-04-01T07:02:15.366Z,7.80
2018-04-01T07:04:42.614Z,7.70
2018-04-01T07:07:11.012Z,7.70
2018-04-01T07:09:38.175Z,7.70
2018-04-01T07:12:05.428Z,7.70
2018-04-01T07:14:33.272Z,7.80
2018-04-01T07:17:01.220Z,7.90
2018-04-01T07:19:28.363Z,7.90
2018-04-01T07:21:55.556Z,8.00
2018-04-01T07:24:22.818Z,8.00
2018-04-01T07:26:49.976Z,8.10
2018-04-01T07:29:17.150Z,8.10
2018-04-01T07:31:44.299Z,8.10
2018-04-01T07:34:11.541Z,8.10
2018-04-01T07:36:38.707Z,8.00
2018-04-01T07:39:06.022Z,7.90
2018-04-01T07:41:33.201Z,7.70
2018-04-01T07:44:00.428Z,7.50
2018-04-01T07:46:27.888Z,7.30
2018-04-01T07:48:55.267Z,7.00
2018-04-01T07:51:22.416Z,7.00
2018-04-01T07:53:49.602Z,6.90
2018-04-01T07:56:17.773Z,6.90
2018-04-01T07:58:44.973Z,6.90
2018-04-01T08:01:12.110Z,6.90
2018-04-01T08:03:39.434Z,6.90
2018-04-01T08:06:06.667Z,6.80
2018-04-01T08:08:35.015Z,6.80
2018-04-01T08:11:02.194Z,6.80
2018-04-01T08:13:30.267Z,6.80
2018-04-01T08:15:57.467Z,6.80
2018-04-01T08:18:24.647Z,6.80
2018-04-01T08:20:51.857Z,6.90
2018-04-01T08:23:19.068Z,7.00
2018-04-01T08:25:46.281Z,7.10
2018-04-01T08:28:13.446Z,7.20
2018-04-01T08:30:40.678Z,7.20
2018-04-01T08:33:07.854Z,7.20
2018-04-01T08:35:35.033Z,7.40
2018-04-01T08:38:02.291Z,7.40
2018-04-01T08:40:29.855Z,7.50
2018-04-01T08:42:57.254Z,7.60
2018-04-01T08:45:24.504Z,7.70
2018-04-01T08:47:52.706Z,8.00
2018-04-01T08:50:19.946Z,8.00
2018-04-01T08:52:47.229Z,7.90
2018-04-01T08:55:14.912Z,7.90
2018-04-01T08:57:42.334Z,7.90
2018-04-01T09:00:09.850Z,7.90
2018-04-01T09:02:37.523Z,7.70
2018-04-01T09:05:04.806Z,7.50
2018-04-01T09:07:32.450Z,7.60
2018-04-01T09:09:59.629Z,7.60
2018-04-01T09:12:26.846Z,7.50
2018-04-01T09:14:54.107Z,7.50
2018-04-01T09:17:22.480Z,7.60
2018-04-01T09:19:49.630Z,7.50
2018-04-01T09:22:16.968Z,7.60
2018-04-01T09:24:45.567Z,7.90
2018-04-01T09:27:12.924Z,7.90
2018-04-01T09:29:40.897Z,8.10
2018-04-01T09:32:08.230Z,8.00
2018-04-01T09:34:36.275Z,8.10
2018-04-01T09:37:03.811Z,8.10
2018-04-01T09:42:06.364Z,8.30
2018-04-01T09:44:34.356Z,8.50
2018-04-01T09:47:02.292Z,8.40
2018-04-01T09:49:29.873Z,8.40
2018-04-01T09:51:57.125Z,8.30
2018-04-01T09:54:25.267Z,8.30
2018-04-01T09:56:52.612Z,8.40
2018-04-01T10:02:00.943Z,8.20
2018-04-01T10:04:29.747Z,8.20
2018-04-01T10:06:57.400Z,8.20
2018-04-01T10:09:26.312Z,8.20
2018-04-01T10:11:54.036Z,8.20
2018-04-01T10:14:23.990Z,8.20
2018-04-01T10:16:51.838Z,8.20
2018-04-01T10:19:20.571Z,8.10
2018-04-01T10:21:56.101Z,8.10
2018-04-01T10:24:24.558Z,8.00
2018-04-01T10:26:52.432Z,8.00
2018-04-01T10:29:21.539Z,8.00
2018-04-01T10:31:50.903Z,7.90
2018-04-01T10:34:18.805Z,7.90
2018-04-01T10:36:46.546Z,8.00
2018-04-01T10:39:14.364Z,8.00
2018-04-01T10:41:42.377Z,8.00
2018-04-01T10:44:10.153Z,8.00
2018-04-01T10:46:39.002Z,8.10
2018-04-01T10:49:07.736Z,8.00
2018-04-01T10:51:36.426Z,8.00
2018-04-01T10:54:05.329Z,8.00
2018-04-01T10:56:33.660Z,8.10
2018-04-01T10:59:02.413Z,8.10
2018-04-01T11:01:32.152Z,8.10
2018-04-01T11:03:59.824Z,8.20
2018-04-01T11:06:27.888Z,8.30
2018-04-01T11:08:55.839Z,8.30
2018-04-01T11:11:23.370Z,8.30
2018-04-01T11:13:50.555Z,8.20
2018-04-01T11:16:17.719Z,8.30
2018-04-01T11:18:45.198Z,8.30
2018-04-01T11:21:12.701Z,8.30
2018-04-01T11:23:39.916Z,8.30
2018-04-01T11:26:07.701Z,8.30
2018-04-01T11:28:35.077Z,8.30
2018-04-01T11:31:02.222Z,8.20
2018-04-01T11:33:29.547Z,8.20
2018-04-01T11:35:57.581Z,8.30
2018-04-01T11:38:24.942Z,8.20
2018-04-01T11:40:52.220Z,8.30
2018-04-01T11:43:19.390Z,8.30
2018-04-01T11:45:46.566Z,8.30
2018-04-01T11:48:13.834Z,8.40
2018-04-01T11:50:40.980Z,8.40
2018-04-01T11:53:08.184Z,8.40
2018-04-01T11:55:36.089Z,8.40
2018-04-01T11:58:03.527Z,8.40
2018-04-01T12:00:30.889Z,8.40
2018-04-01T12:02:58.273Z,8.30
2018-04-01T12:05:25.499Z,8.30
2018-04-01T12:07:52.718Z,8.20
2018-04-01T12:10:19.928Z,8.20
2018-04-01T12:12:47.101Z,8.20
2018-04-01T12:15:14.360Z,8.20
2018-04-01T12:17:41.533Z,8.10
2018-04-01T12:20:08.785Z,7.90
2018-04-01T12:22:35.995Z,7.80
2018-04-01T12:25:03.428Z,7.70
2018-04-01T12:27:31.361Z,7.70
2018-04-01T12:29:58.538Z,7.60
2018-04-01T12:32:25.728Z,7.60
2018-04-01T12:34:53.144Z,7.60
2018-04-01T12:37:20.548Z,7.60
2018-04-01T12:39:48.616Z,7.50
2018-04-01T12:42:16.880Z,7.50
2018-04-01T12:44:44.135Z,7.40
2018-04-01T12:47:11.337Z,7.50
2018-04-01T12:49:39.229Z,7.50
2018-04-01T12:52:06.458Z,7.50
2018-04-01T12:54:33.991Z,7.50
2018-04-01T12:57:01.253Z,7.40
2018-04-01T12:59:28.546Z,7.50
2018-04-01T13:01:55.714Z,7.40
2018-04-01T13:04:22.864Z,7.40
2018-04-01T13:06:50.098Z,7.50
2018-04-01T13:09:17.267Z,7.50
2018-04-01T13:11:44.496Z,7.50
2018-04-01T13:14:11.729Z,7.50
2018-04-01T13:16:38.907Z,7.50
2018-04-01T13:19:06.216Z,7.60
2018-04-01T13:21:33.539Z,7.60
2018-04-01T13:24:01.564Z,7.70
2018-04-01T13:26:28.919Z,7.60
2018-04-01T13:28:56.131Z,7.70
2018-04-01T13:31:23.306Z,7.80
2018-04-01T13:33:50.481Z,7.90
2018-04-01T13:36:18.515Z,7.90
2018-04-01T13:38:46.344Z,8.00
2018-04-01T13:41:15.716Z,8.20
2018-04-01T13:43:42.945Z,8.20
2018-04-01T13:46:10.138Z,8.20
2018-04-01T13:48:37.640Z,8.40
2018-04-01T13:51:06.225Z,8.50
2018-04-01T13:53:33.684Z,8.60
2018-04-01T13:56:06.997Z,8.60
2018-04-01T13:58:34.208Z,8.70
2018-04-01T14:01:03.309Z,8.70
2018-04-01T14:03:31.355Z,8.70
2018-04-01T14:05:59.002Z,8.70
2018-04-01T14:08:26.656Z,8.80
2018-04-01T14:10:53.808Z,8.90
2018-04-01T14:13:21.962Z,9.00
2018-04-01T14:15:49.295Z,8.90
2018-04-01T14:18:18.216Z,8.90
2018-04-01T14:20:45.666Z,8.80
2018-04-01T14:23:13.370Z,8.80
2018-04-01T14:25:40.582Z,8.80
2018-04-01T14:28:07.808Z,8.80
2018-04-01T14:30:35.067Z,8.70
2018-04-01T14:33:03.046Z,8.70
2018-04-01T14:35:30.860Z,8.70
2018-04-01T14:37:58.014Z,8.80
2018-04-01T14:40:25.932Z,8.90
2018-04-01T14:42:53.281Z,9.00
2018-04-01T14:45:26.914Z,9.00
2018-04-01T14:47:54.251Z,9.10
2018-04-01T14:50:22.209Z,9.00
2018-04-01T14:52:49.540Z,9.00
2018-04-01T14:55:18.671Z,9.00
2018-04-01T14:57:45.990Z,9.00
2018-04-01T15:00:14.172Z,9.10
2018-04-01T15:02:41.462Z,9.10
2018-04-01T15:05:09.600Z,9.10
2018-04-01T15:07:38.146Z,9.10
2018-04-01T15:10:05.646Z,9.20
2018-04-01T15:12:32.825Z,9.20
2018-04-01T15:15:00.215Z,9.30
2018-04-01T15:17:27.466Z,9.50
2018-04-01T15:19:54.646Z,9.70
2018-04-01T15:22:22.883Z,10.00
2018-04-01T15:24:51.013Z,10.10
2018-04-01T15:27:18.398Z,9.60
2018-04-01T15:29:46.976Z,9.20
2018-04-01T15:32:15.138Z,9.20
2018-04-01T15:34:44.111Z,9.20
2018-04-01T15:37:12.411Z,9.10
2018-04-01T15:39:39.820Z,9.10
2018-04-01T15:42:07.099Z,9.10
2018-04-01T15:44:35.307Z,9.00
2018-04-01T15:47:02.675Z,8.80
2018-04-01T15:49:30.150Z,8.70
2018-04-01T15:51:57.483Z,8.70
2018-04-01T15:54:24.651Z,8.60
2018-04-01T15:56:52.129Z,8.50
2018-04-01T15:59:19.600Z,8.40
2018-04-01T16:01:47.023Z,8.30
2018-04-01T16:04:14.321Z,8.30
2018-04-01T16:06:41.765Z,8.20
2018-04-01T16:09:08.933Z,8.20
2018-04-01T16:11:36.283Z,8.10
2018-04-01T16:14:03.680Z,8.10
2018-04-01T16:16:30.893Z,8.00
2018-04-01T16:18:58.267Z,8.00
2018-04-01T16:21:25.486Z,7.80
2018-04-01T16:23:52.859Z,7.80
2018-04-01T16:26:20.904Z,7.90
2018-04-01T16:28:48.151Z,7.90
2018-04-01T16:31:15.343Z,7.90
2018-04-01T16:33:42.540Z,7.90
2018-04-01T16:36:09.792Z,8.00
2018-04-01T16:38:36.986Z,7.90
2018-04-01T16:41:05.067Z,8.00
2018-04-01T16:43:32.947Z,8.00
2018-04-01T16:46:00.358Z,7.90
2018-04-01T16:48:28.520Z,7.80
2018-04-01T16:50:55.760Z,7.80
2018-04-01T16:53:23.259Z,7.80
2018-04-01T16:55:50.634Z,7.80
2018-04-01T16:58:19.216Z,7.80
2018-04-01T17:00:46.401Z,7.80
2018-04-01T17:03:13.591Z,7.80
2018-04-01T19:35:48.033Z,7.20
2018-04-01T19:38:16.819Z,7.20
2018-04-01T19:40:44.817Z,7.20
2018-04-01T19:43:13.619Z,7.20
2018-04-01T19:45:41.354Z,7.20
2018-04-01T19:48:09.202Z,7.20
2018-04-01T22:48:45.827Z,7.10
2018-04-01T22:51:13.487Z,7.10
2018-04-01T22:53:42.205Z,7.10
2018-04-01T22:56:10.300Z,7.10
2018-04-01T22:58:39.678Z,7.10
2018-04-01T23:01:10.616Z,7.00
2018-04-01T23:03:38.525Z,7.00
2018-04-01T23:06:07.312Z,7.00
2018-04-01T23:08:36.629Z,6.90
2018-04-01T23:11:07.606Z,7.00
2018-04-01T23:13:35.958Z,6.90
2018-04-01T23:16:06.085Z,6.90
2018-04-01T23:18:34.258Z,6.90
2018-04-01T23:21:02.679Z,6.90
2018-04-01T23:23:32.150Z,6.90
2018-04-01T23:26:01.497Z,6.80
2018-04-01T23:28:30.320Z,6.90
2018-04-01T23:30:57.987Z,6.90
2018-04-01T23:33:25.614Z,6.90
2018-04-01T23:35:54.055Z,6.90
2018-04-01T23:38:21.709Z,6.90
2018-04-01T23:40:49.394Z,7.00
2018-04-01T23:43:18.027Z,6.90
2018-04-01T23:45:46.658Z,6.80
2018-04-01T23:48:14.456Z,6.80
2018-04-01T23:50:42.976Z,6.80
2018-04-01T23:53:10.702Z,6.80
2018-04-01T23:55:38.396Z,6.80
2018-04-01T23:58:06.071Z,6.80
